Abbotsford Airport
CYXX : now visible

Airfield :











YOU CAN JOIN US ON...

 
LOGIN :

Register | Disclaimer

   EN    FR    IT 

 









Legend :    VFR   Marginal VFR   IFR   Intensive IFR   Very Intensive IFR
Visi :
Ceiling :
>= 8 km
>= 3000ft
5 to 8 km
1000 to 3000 ft
1500m to 5 km
500 to 1000 ft
800 to 1500m
200 to 500 ft
< 800m
< 200 ft
Symbols :   Thunderstorms  Fog  Heavy snow  Heavy precipitations  Wind > 20 kt






- Airport Elevation : 195 ft
- IATA code : YXX


CYXX - Abbotsford

CURRENT METAR :
  • 031400Z VRB02KT 20SM BKN060 16/14 A3013 RMK SC6 SLP203

EXPIRED METARs :
  • 031300Z 27002KT 20SM SCT060 BKN100 15/13 A3011 RMK SC4AC1 SLP199
  • 031200Z 20002KT 15SM SCT140 15/13 A3011 RMK AC3 SLP198

TAF TAF CYXX
Valid from the 03 at 12:00 until the 04 at 12:00 UTC


031138Z 0312/0412 VRB03KT P6SM SCT060 SCT150
FM031400 VRB03KT P6SM SCT015 BKN060
TEMPO 0314/0318 P6SM -SHRA BKN012
FM031800 23008KT P6SM SCT020 BKN040
TEMPO 0318/0323 P6SM -SHRA BKN020
FM032300 24010KT P6SM SCT030
BECMG 0404/0406 VRB03KT RMK NXT FCST BY 031800Z
CZVR FIR / North America



MET'MAP, your aeronautical weather chart ! - Copyright ORBIFLY December 2007 - Disclaimer

ORBIFLY MET'MAP TEAM :

Programming & Development : Alexandra Zaïnal
Concept & original design : Baudouin d'Aumeries
Assistance for programming : Marc-Olivier Méhu
Technical & hardware support : Manuel Goepfert

Contact : metmap@orbifly.com




SOURCES & CREDITS :

   NOAA       Earth
Advisory